sensor_id;sensor_type;location;lat;lon;timestamp;P1;durP1;ratioP1;P2;durP2;ratioP2
64297;SDS011;50639;53.270;7.956;2023-01-01T00:00:58;15.55;;;6.07;;
64297;SDS011;50639;53.270;7.956;2023-01-01T00:03:24;17.15;;;5.47;;
64297;SDS011;50639;53.270;7.956;2023-01-01T00:05:49;21.35;;;6.68;;
64297;SDS011;50639;53.270;7.956;2023-01-01T00:08:14;21.40;;;6.40;;
64297;SDS011;50639;53.270;7.956;2023-01-01T00:10:40;14.77;;;5.43;;
64297;SDS011;50639;53.270;7.956;2023-01-01T00:13:05;16.77;;;6.38;;
64297;SDS011;50639;53.270;7.956;2023-01-01T00:15:30;19.13;;;5.53;;
64297;SDS011;50639;53.270;7.956;2023-01-01T00:17:56;17.30;;;6.18;;
64297;SDS011;50639;53.270;7.956;2023-01-01T00:20:22;20.63;;;7.30;;
64297;SDS011;50639;53.270;7.956;2023-01-01T00:22:47;25.33;;;6.50;;
64297;SDS011;50639;53.270;7.956;2023-01-01T00:25:12;22.20;;;6.88;;
64297;SDS011;50639;53.270;7.956;2023-01-01T00:27:42;19.00;;;6.32;;
64297;SDS011;50639;53.270;7.956;2023-01-01T00:30:08;16.92;;;6.65;;
64297;SDS011;50639;53.270;7.956;2023-01-01T00:32:34;22.20;;;7.13;;
64297;SDS011;50639;53.270;7.956;2023-01-01T00:34:59;11.80;;;5.20;;
64297;SDS011;50639;53.270;7.956;2023-01-01T00:37:26;16.80;;;6.22;;
64297;SDS011;50639;53.270;7.956;2023-01-01T00:39:51;20.67;;;6.63;;
64297;SDS011;50639;53.270;7.956;2023-01-01T00:42:16;16.67;;;7.10;;
64297;SDS011;50639;53.270;7.956;2023-01-01T00:44:42;23.50;;;6.30;;
64297;SDS011;50639;53.270;7.956;2023-01-01T00:47:07;16.63;;;6.05;;
64297;SDS011;50639;53.270;7.956;2023-01-01T00:49:33;16.33;;;5.85;;
64297;SDS011;50639;53.270;7.956;2023-01-01T00:51:58;20.55;;;6.70;;
64297;SDS011;50639;53.270;7.956;2023-01-01T00:54:23;18.20;;;6.13;;
64297;SDS011;50639;53.270;7.956;2023-01-01T00:56:48;22.13;;;7.05;;
64297;SDS011;50639;53.270;7.956;2023-01-01T00:59:14;14.37;;;6.23;;
64297;SDS011;50639;53.270;7.956;2023-01-01T01:01:39;14.75;;;6.82;;
64297;SDS011;50639;53.270;7.956;2023-01-01T01:04:05;19.65;;;6.78;;
64297;SDS011;50639;53.270;7.956;2023-01-01T01:06:30;23.23;;;6.53;;
64297;SDS011;50639;53.270;7.956;2023-01-01T01:08:55;18.07;;;6.97;;
64297;SDS011;50639;53.270;7.956;2023-01-01T01:11:22;20.30;;;7.47;;
64297;SDS011;50639;53.270;7.956;2023-01-01T01:13:49;21.85;;;8.13;;
64297;SDS011;50639;53.270;7.956;2023-01-01T01:16:15;23.85;;;8.95;;
64297;SDS011;50639;53.270;7.956;2023-01-01T01:18:41;22.50;;;8.87;;
64297;SDS011;50639;53.270;7.956;2023-01-01T01:21:08;23.25;;;9.80;;
64297;SDS011;50639;53.270;7.956;2023-01-01T01:23:33;19.17;;;9.05;;
64297;SDS011;50639;53.270;7.956;2023-01-01T01:26:06;19.42;;;9.00;;
64297;SDS011;50639;53.270;7.956;2023-01-01T01:28:31;21.48;;;9.18;;
64297;SDS011;50639;53.270;7.956;2023-01-01T01:30:58;23.83;;;9.53;;
64297;SDS011;50639;53.270;7.956;2023-01-01T01:33:24;19.45;;;10.23;;
64297;SDS011;50639;53.270;7.956;2023-01-01T01:35:49;19.07;;;9.90;;
64297;SDS011;50639;53.270;7.956;2023-01-01T01:38:15;26.38;;;11.20;;
64297;SDS011;50639;53.270;7.956;2023-01-01T01:40:41;19.63;;;9.80;;
64297;SDS011;50639;53.270;7.956;2023-01-01T01:43:10;24.48;;;11.05;;
64297;SDS011;50639;53.270;7.956;2023-01-01T01:45:36;26.13;;;10.73;;
64297;SDS011;50639;53.270;7.956;2023-01-01T01:48:01;18.50;;;9.47;;
64297;SDS011;50639;53.270;7.956;2023-01-01T01:50:33;23.40;;;11.38;;
64297;SDS011;50639;53.270;7.956;2023-01-01T01:55:28;21.27;;;11.30;;
64297;SDS011;50639;53.270;7.956;2023-01-01T01:57:55;23.55;;;11.13;;
64297;SDS011;50639;53.270;7.956;2023-01-01T02:00:20;26.52;;;12.35;;
64297;SDS011;50639;53.270;7.956;2023-01-01T02:02:52;25.58;;;12.45;;
64297;SDS011;50639;53.270;7.956;2023-01-01T02:05:19;26.25;;;11.90;;
64297;SDS011;50639;53.270;7.956;2023-01-01T02:07:46;20.50;;;12.60;;
64297;SDS011;50639;53.270;7.956;2023-01-01T02:10:11;23.42;;;12.65;;
64297;SDS011;50639;53.270;7.956;2023-01-01T02:12:37;26.50;;;12.50;;
64297;SDS011;50639;53.270;7.956;2023-01-01T02:15:02;24.95;;;12.95;;
64297;SDS011;50639;53.270;7.956;2023-01-01T02:17:32;23.65;;;12.73;;
64297;SDS011;50639;53.270;7.956;2023-01-01T02:25:27;23.23;;;12.82;;
64297;SDS011;50639;53.270;7.956;2023-01-01T02:30:21;27.40;;;13.60;;
64297;SDS011;50639;53.270;7.956;2023-01-01T02:32:51;24.02;;;13.38;;
64297;SDS011;50639;53.270;7.956;2023-01-01T02:35:19;23.30;;;15.32;;
64297;SDS011;50639;53.270;7.956;2023-01-01T02:38:04;34.00;;;13.90;;
64297;SDS011;50639;53.270;7.956;2023-01-01T02:40:30;27.98;;;14.90;;
64297;SDS011;50639;53.270;7.956;2023-01-01T02:42:57;26.88;;;15.50;;
64297;SDS011;50639;53.270;7.956;2023-01-01T02:45:22;28.85;;;14.55;;
64297;SDS011;50639;53.270;7.956;2023-01-01T02:47:48;28.23;;;14.55;;
64297;SDS011;50639;53.270;7.956;2023-01-01T02:50:14;27.20;;;15.73;;
64297;SDS011;50639;53.270;7.956;2023-01-01T02:58:15;27.37;;;15.80;;
64297;SDS011;50639;53.270;7.956;2023-01-01T03:01:08;29.20;;;15.27;;
64297;SDS011;50639;53.270;7.956;2023-01-01T03:03:41;28.70;;;16.20;;
64297;SDS011;50639;53.270;7.956;2023-01-01T03:06:33;24.77;;;14.75;;
64297;SDS011;50639;53.270;7.956;2023-01-01T03:09:07;22.30;;;13.77;;
64297;SDS011;50639;53.270;7.956;2023-01-01T03:11:45;23.08;;;12.85;;
64297;SDS011;50639;53.270;7.956;2023-01-01T03:14:21;23.98;;;13.10;;
64297;SDS011;50639;53.270;7.956;2023-01-01T03:19:22;21.93;;;12.90;;
64297;SDS011;50639;53.270;7.956;2023-01-01T03:21:49;29.67;;;12.80;;
64297;SDS011;50639;53.270;7.956;2023-01-01T03:26:40;19.67;;;11.35;;
64297;SDS011;50639;53.270;7.956;2023-01-01T03:29:07;21.00;;;11.55;;
64297;SDS011;50639;53.270;7.956;2023-01-01T03:31:34;26.35;;;11.82;;
64297;SDS011;50639;53.270;7.956;2023-01-01T03:34:04;23.27;;;11.07;;
64297;SDS011;50639;53.270;7.956;2023-01-01T03:36:36;20.77;;;10.75;;
64297;SDS011;50639;53.270;7.956;2023-01-01T03:39:07;19.92;;;10.32;;
64297;SDS011;50639;53.270;7.956;2023-01-01T03:41:36;23.33;;;9.43;;
64297;SDS011;50639;53.270;7.956;2023-01-01T03:44:11;29.80;;;10.40;;
64297;SDS011;50639;53.270;7.956;2023-01-01T03:46:39;17.55;;;9.10;;
64297;SDS011;50639;53.270;7.956;2023-01-01T03:49:06;22.17;;;9.05;;
64297;SDS011;50639;53.270;7.956;2023-01-01T03:54:01;22.70;;;8.40;;
64297;SDS011;50639;53.270;7.956;2023-01-01T03:56:40;20.95;;;8.70;;
64297;SDS011;50639;53.270;7.956;2023-01-01T04:01:36;19.05;;;8.60;;
64297;SDS011;50639;53.270;7.956;2023-01-01T04:04:04;17.27;;;6.82;;
64297;SDS011;50639;53.270;7.956;2023-01-01T04:06:33;19.90;;;6.93;;
64297;SDS011;50639;53.270;7.956;2023-01-01T04:08:58;16.33;;;6.40;;
64297;SDS011;50639;53.270;7.956;2023-01-01T04:11:25;20.13;;;7.60;;
64297;SDS011;50639;53.270;7.956;2023-01-01T04:14:10;20.35;;;6.22;;
64297;SDS011;50639;53.270;7.956;2023-01-01T04:16:35;11.87;;;5.57;;
64297;SDS011;50639;53.270;7.956;2023-01-01T04:19:01;14.50;;;5.95;;
64297;SDS011;50639;53.270;7.956;2023-01-01T04:21:26;13.40;;;5.77;;
64297;SDS011;50639;53.270;7.956;2023-01-01T04:23:51;13.98;;;6.18;;
64297;SDS011;50639;53.270;7.956;2023-01-01T04:26:17;11.37;;;5.30;;
64297;SDS011;50639;53.270;7.956;2023-01-01T04:28:42;11.50;;;5.38;;
64297;SDS011;50639;53.270;7.956;2023-01-01T04:31:09;13.40;;;5.88;;
64297;SDS011;50639;53.270;7.956;2023-01-01T04:33:35;13.25;;;5.18;;
64297;SDS011;50639;53.270;7.956;2023-01-01T04:36:10;18.60;;;6.18;;
64297;SDS011;50639;53.270;7.956;2023-01-01T04:38:35;14.23;;;5.53;;
64297;SDS011;50639;53.270;7.956;2023-01-01T04:41:01;10.13;;;4.88;;
64297;SDS011;50639;53.270;7.956;2023-01-01T04:43:27;12.77;;;4.65;;
64297;SDS011;50639;53.270;7.956;2023-01-01T04:45:59;15.23;;;5.53;;
64297;SDS011;50639;53.270;7.956;2023-01-01T04:48:25;14.70;;;5.30;;
64297;SDS011;50639;53.270;7.956;2023-01-01T04:50:58;15.40;;;5.28;;
64297;SDS011;50639;53.270;7.956;2023-01-01T04:53:24;14.48;;;4.82;;
64297;SDS011;50639;53.270;7.956;2023-01-01T04:55:49;11.73;;;4.68;;
64297;SDS011;50639;53.270;7.956;2023-01-01T04:58:15;20.45;;;5.50;;
64297;SDS011;50639;53.270;7.956;2023-01-01T05:00:41;17.83;;;5.30;;
64297;SDS011;50639;53.270;7.956;2023-01-01T05:03:07;12.75;;;5.65;;
64297;SDS011;50639;53.270;7.956;2023-01-01T05:05:32;14.20;;;4.88;;
64297;SDS011;50639;53.270;7.956;2023-01-01T05:07:57;11.02;;;4.88;;
64297;SDS011;50639;53.270;7.956;2023-01-01T05:10:23;11.13;;;4.10;;
64297;SDS011;50639;53.270;7.956;2023-01-01T05:12:48;11.82;;;4.88;;
64297;SDS011;50639;53.270;7.956;2023-01-01T05:15:13;15.00;;;4.77;;
64297;SDS011;50639;53.270;7.956;2023-01-01T05:17:39;16.13;;;4.55;;
64297;SDS011;50639;53.270;7.956;2023-01-01T05:20:04;17.45;;;4.53;;
64297;SDS011;50639;53.270;7.956;2023-01-01T05:22:29;12.15;;;4.43;;
64297;SDS011;50639;53.270;7.956;2023-01-01T05:24:55;11.33;;;4.00;;
64297;SDS011;50639;53.270;7.956;2023-01-01T05:27:20;11.52;;;4.18;;
64297;SDS011;50639;53.270;7.956;2023-01-01T05:29:46;12.90;;;4.00;;
64297;SDS011;50639;53.270;7.956;2023-01-01T05:32:11;13.15;;;4.30;;
64297;SDS011;50639;53.270;7.956;2023-01-01T05:34:36;13.50;;;3.80;;
64297;SDS011;50639;53.270;7.956;2023-01-01T05:37:02;10.98;;;4.10;;
64297;SDS011;50639;53.270;7.956;2023-01-01T05:39:27;11.70;;;3.78;;
64297;SDS011;50639;53.270;7.956;2023-01-01T05:41:52;17.50;;;4.13;;
64297;SDS011;50639;53.270;7.956;2023-01-01T05:44:18;11.93;;;4.03;;
64297;SDS011;50639;53.270;7.956;2023-01-01T05:46:43;10.98;;;3.33;;
64297;SDS011;50639;53.270;7.956;2023-01-01T05:49:09;9.77;;;2.77;;
64297;SDS011;50639;53.270;7.956;2023-01-01T05:51:35;13.43;;;3.87;;
64297;SDS011;50639;53.270;7.956;2023-01-01T05:54:01;15.50;;;3.75;;
64297;SDS011;50639;53.270;7.956;2023-01-01T05:56:26;12.93;;;3.15;;
64297;SDS011;50639;53.270;7.956;2023-01-01T05:58:52;11.57;;;3.22;;
64297;SDS011;50639;53.270;7.956;2023-01-01T06:03:43;9.70;;;3.10;;
64297;SDS011;50639;53.270;7.956;2023-01-01T06:06:10;12.82;;;3.35;;
64297;SDS011;50639;53.270;7.956;2023-01-01T06:08:35;12.55;;;3.08;;
64297;SDS011;50639;53.270;7.956;2023-01-01T06:11:01;16.60;;;3.40;;
64297;SDS011;50639;53.270;7.956;2023-01-01T06:13:27;12.55;;;3.28;;
64297;SDS011;50639;53.270;7.956;2023-01-01T06:15:56;12.65;;;3.50;;
64297;SDS011;50639;53.270;7.956;2023-01-01T06:18:23;9.00;;;2.90;;
64297;SDS011;50639;53.270;7.956;2023-01-01T06:20:49;12.43;;;3.47;;
64297;SDS011;50639;53.270;7.956;2023-01-01T06:23:14;12.57;;;3.03;;
64297;SDS011;50639;53.270;7.956;2023-01-01T06:25:40;8.20;;;2.92;;
64297;SDS011;50639;53.270;7.956;2023-01-01T06:28:05;9.47;;;2.93;;
64297;SDS011;50639;53.270;7.956;2023-01-01T06:30:30;14.32;;;3.70;;
64297;SDS011;50639;53.270;7.956;2023-01-01T06:32:58;8.65;;;2.70;;
64297;SDS011;50639;53.270;7.956;2023-01-01T06:35:23;12.02;;;2.85;;
64297;SDS011;50639;53.270;7.956;2023-01-01T06:37:49;6.63;;;2.80;;
64297;SDS011;50639;53.270;7.956;2023-01-01T06:40:14;8.93;;;2.60;;
64297;SDS011;50639;53.270;7.956;2023-01-01T06:42:39;11.65;;;3.20;;
64297;SDS011;50639;53.270;7.956;2023-01-01T06:45:05;8.50;;;2.83;;
64297;SDS011;50639;53.270;7.956;2023-01-01T06:47:32;8.32;;;2.85;;
64297;SDS011;50639;53.270;7.956;2023-01-01T06:49:58;11.10;;;2.63;;
64297;SDS011;50639;53.270;7.956;2023-01-01T06:52:23;11.27;;;3.17;;
64297;SDS011;50639;53.270;7.956;2023-01-01T06:54:48;7.90;;;2.30;;
64297;SDS011;50639;53.270;7.956;2023-01-01T06:57:13;8.35;;;3.00;;
64297;SDS011;50639;53.270;7.956;2023-01-01T06:59:40;6.28;;;2.60;;
64297;SDS011;50639;53.270;7.956;2023-01-01T07:02:07;7.82;;;2.47;;
64297;SDS011;50639;53.270;7.956;2023-01-01T07:04:33;9.65;;;2.30;;
64297;SDS011;50639;53.270;7.956;2023-01-01T07:06:58;5.57;;;2.37;;
64297;SDS011;50639;53.270;7.956;2023-01-01T07:09:25;6.80;;;2.38;;
64297;SDS011;50639;53.270;7.956;2023-01-01T07:11:50;9.90;;;2.78;;
64297;SDS011;50639;53.270;7.956;2023-01-01T07:14:15;7.10;;;2.42;;
64297;SDS011;50639;53.270;7.956;2023-01-01T07:16:41;6.47;;;2.17;;
64297;SDS011;50639;53.270;7.956;2023-01-01T07:19:06;4.75;;;1.88;;
64297;SDS011;50639;53.270;7.956;2023-01-01T07:21:32;6.10;;;2.43;;
64297;SDS011;50639;53.270;7.956;2023-01-01T07:23:59;6.50;;;2.10;;
64297;SDS011;50639;53.270;7.956;2023-01-01T07:26:24;6.38;;;1.98;;
64297;SDS011;50639;53.270;7.956;2023-01-01T07:28:51;7.25;;;2.30;;
64297;SDS011;50639;53.270;7.956;2023-01-01T07:31:16;8.15;;;2.33;;
64297;SDS011;50639;53.270;7.956;2023-01-01T07:33:42;3.65;;;1.73;;
64297;SDS011;50639;53.270;7.956;2023-01-01T07:36:07;7.00;;;2.25;;
64297;SDS011;50639;53.270;7.956;2023-01-01T07:38:33;6.70;;;1.95;;
64297;SDS011;50639;53.270;7.956;2023-01-01T07:40:58;4.60;;;1.97;;
64297;SDS011;50639;53.270;7.956;2023-01-01T07:43:23;6.35;;;2.40;;
64297;SDS011;50639;53.270;7.956;2023-01-01T07:45:48;8.82;;;2.22;;
64297;SDS011;50639;53.270;7.956;2023-01-01T07:48:14;3.17;;;1.85;;
64297;SDS011;50639;53.270;7.956;2023-01-01T07:50:40;4.70;;;1.88;;
64297;SDS011;50639;53.270;7.956;2023-01-01T07:53:05;5.90;;;2.13;;
64297;SDS011;50639;53.270;7.956;2023-01-01T07:55:31;8.55;;;2.30;;
64297;SDS011;50639;53.270;7.956;2023-01-01T07:57:56;9.25;;;2.20;;
64297;SDS011;50639;53.270;7.956;2023-01-01T08:00:21;3.65;;;1.83;;
64297;SDS011;50639;53.270;7.956;2023-01-01T08:02:47;9.63;;;2.00;;
64297;SDS011;50639;53.270;7.956;2023-01-01T08:05:12;6.95;;;2.38;;
64297;SDS011;50639;53.270;7.956;2023-01-01T08:07:38;5.22;;;2.15;;
64297;SDS011;50639;53.270;7.956;2023-01-01T08:10:03;6.30;;;2.35;;
64297;SDS011;50639;53.270;7.956;2023-01-01T08:12:29;5.68;;;2.33;;
64297;SDS011;50639;53.270;7.956;2023-01-01T08:14:54;6.07;;;2.03;;
64297;SDS011;50639;53.270;7.956;2023-01-01T08:17:19;6.65;;;2.30;;
64297;SDS011;50639;53.270;7.956;2023-01-01T08:19:45;7.78;;;2.28;;
64297;SDS011;50639;53.270;7.956;2023-01-01T08:22:11;14.63;;;3.10;;
64297;SDS011;50639;53.270;7.956;2023-01-01T08:24:36;8.63;;;2.47;;
64297;SDS011;50639;53.270;7.956;2023-01-01T08:27:02;18.05;;;2.22;;
64297;SDS011;50639;53.270;7.956;2023-01-01T08:29:27;7.35;;;2.20;;
64297;SDS011;50639;53.270;7.956;2023-01-01T08:31:52;7.72;;;2.40;;
64297;SDS011;50639;53.270;7.956;2023-01-01T08:34:18;11.00;;;2.70;;
64297;SDS011;50639;53.270;7.956;2023-01-01T08:36:43;10.23;;;2.58;;
64297;SDS011;50639;53.270;7.956;2023-01-01T08:39:08;10.85;;;2.33;;
64297;SDS011;50639;53.270;7.956;2023-01-01T08:41:35;3.95;;;1.80;;
64297;SDS011;50639;53.270;7.956;2023-01-01T08:44:01;8.93;;;2.63;;
64297;SDS011;50639;53.270;7.956;2023-01-01T08:46:26;7.03;;;2.55;;
64297;SDS011;50639;53.270;7.956;2023-01-01T08:48:51;6.50;;;1.90;;
64297;SDS011;50639;53.270;7.956;2023-01-01T08:51:17;8.88;;;2.50;;
64297;SDS011;50639;53.270;7.956;2023-01-01T08:53:42;5.70;;;2.35;;
64297;SDS011;50639;53.270;7.956;2023-01-01T08:56:08;10.73;;;3.20;;
64297;SDS011;50639;53.270;7.956;2023-01-01T08:58:34;9.65;;;2.95;;
64297;SDS011;50639;53.270;7.956;2023-01-01T09:01:00;11.52;;;2.28;;
64297;SDS011;50639;53.270;7.956;2023-01-01T09:03:25;11.52;;;2.60;;
64297;SDS011;50639;53.270;7.956;2023-01-01T09:05:51;8.00;;;2.50;;
64297;SDS011;50639;53.270;7.956;2023-01-01T09:08:17;13.48;;;3.03;;
64297;SDS011;50639;53.270;7.956;2023-01-01T09:10:43;11.52;;;2.72;;
64297;SDS011;50639;53.270;7.956;2023-01-01T09:13:09;12.77;;;2.63;;
64297;SDS011;50639;53.270;7.956;2023-01-01T09:15:34;8.48;;;2.20;;
64297;SDS011;50639;53.270;7.956;2023-01-01T09:18:00;13.38;;;2.38;;
64297;SDS011;50639;53.270;7.956;2023-01-01T09:20:25;9.05;;;2.67;;
64297;SDS011;50639;53.270;7.956;2023-01-01T09:22:50;13.13;;;3.10;;
64297;SDS011;50639;53.270;7.956;2023-01-01T09:25:16;8.45;;;2.45;;
64297;SDS011;50639;53.270;7.956;2023-01-01T09:27:41;12.00;;;3.72;;
64297;SDS011;50639;53.270;7.956;2023-01-01T09:30:06;12.05;;;2.80;;
64297;SDS011;50639;53.270;7.956;2023-01-01T09:32:32;11.32;;;2.92;;
64297;SDS011;50639;53.270;7.956;2023-01-01T09:34:57;8.18;;;2.40;;
64297;SDS011;50639;53.270;7.956;2023-01-01T09:37:24;10.13;;;2.63;;
64297;SDS011;50639;53.270;7.956;2023-01-01T09:39:50;10.32;;;2.35;;
64297;SDS011;50639;53.270;7.956;2023-01-01T09:44:48;11.65;;;3.22;;
64297;SDS011;50639;53.270;7.956;2023-01-01T09:49:43;11.70;;;2.67;;
64297;SDS011;50639;53.270;7.956;2023-01-01T09:52:12;13.43;;;3.00;;
64297;SDS011;50639;53.270;7.956;2023-01-01T09:54:39;11.50;;;2.78;;
64297;SDS011;50639;53.270;7.956;2023-01-01T09:57:09;20.20;;;3.20;;
64297;SDS011;50639;53.270;7.956;2023-01-01T09:59:36;14.15;;;2.78;;
64297;SDS011;50639;53.270;7.956;2023-01-01T10:04:53;13.57;;;3.15;;
64297;SDS011;50639;53.270;7.956;2023-01-01T10:07:38;11.20;;;3.22;;
64297;SDS011;50639;53.270;7.956;2023-01-01T10:10:12;10.90;;;2.80;;
64297;SDS011;50639;53.270;7.956;2023-01-01T10:12:58;14.23;;;3.25;;
64297;SDS011;50639;53.270;7.956;2023-01-01T10:15:30;13.07;;;3.00;;
64297;SDS011;50639;53.270;7.956;2023-01-01T10:17:57;10.65;;;2.60;;
64297;SDS011;50639;53.270;7.956;2023-01-01T10:20:26;17.60;;;5.68;;
64297;SDS011;50639;53.270;7.956;2023-01-01T10:22:53;13.15;;;2.97;;
64297;SDS011;50639;53.270;7.956;2023-01-01T10:25:26;10.45;;;2.78;;
64297;SDS011;50639;53.270;7.956;2023-01-01T10:27:59;10.88;;;2.83;;
64297;SDS011;50639;53.270;7.956;2023-01-01T10:30:25;15.48;;;3.33;;
64297;SDS011;50639;53.270;7.956;2023-01-01T10:32:51;13.02;;;3.15;;
64297;SDS011;50639;53.270;7.956;2023-01-01T10:35:18;13.05;;;3.15;;
64297;SDS011;50639;53.270;7.956;2023-01-01T10:37:44;13.35;;;3.33;;
64297;SDS011;50639;53.270;7.956;2023-01-01T10:42:38;11.13;;;2.88;;
64297;SDS011;50639;53.270;7.956;2023-01-01T10:45:04;13.35;;;3.63;;
64297;SDS011;50639;53.270;7.956;2023-01-01T10:47:29;10.70;;;2.50;;
64297;SDS011;50639;53.270;7.956;2023-01-01T10:49:59;12.07;;;2.85;;
64297;SDS011;50639;53.270;7.956;2023-01-01T10:52:43;14.15;;;3.60;;
64297;SDS011;50639;53.270;7.956;2023-01-01T10:55:19;16.95;;;4.47;;
64297;SDS011;50639;53.270;7.956;2023-01-01T10:57:44;17.63;;;2.88;;
64297;SDS011;50639;53.270;7.956;2023-01-01T11:02:35;12.82;;;2.78;;
64297;SDS011;50639;53.270;7.956;2023-01-01T11:05:20;19.73;;;4.07;;
64297;SDS011;50639;53.270;7.956;2023-01-01T11:07:46;14.13;;;3.17;;
64297;SDS011;50639;53.270;7.956;2023-01-01T11:10:16;15.90;;;3.42;;
64297;SDS011;50639;53.270;7.956;2023-01-01T11:12:42;14.35;;;3.05;;
64297;SDS011;50639;53.270;7.956;2023-01-01T11:15:18;12.90;;;3.05;;
64297;SDS011;50639;53.270;7.956;2023-01-01T11:17:44;15.43;;;3.37;;
64297;SDS011;50639;53.270;7.956;2023-01-01T11:20:14;12.13;;;3.20;;
64297;SDS011;50639;53.270;7.956;2023-01-01T11:22:41;16.65;;;3.20;;
64297;SDS011;50639;53.270;7.956;2023-01-01T11:25:17;14.25;;;3.22;;
64297;SDS011;50639;53.270;7.956;2023-01-01T11:27:43;17.10;;;3.33;;
64297;SDS011;50639;53.270;7.956;2023-01-01T11:30:22;15.98;;;3.80;;
64297;SDS011;50639;53.270;7.956;2023-01-01T11:32:49;12.40;;;2.90;;
64297;SDS011;50639;53.270;7.956;2023-01-01T11:35:17;15.18;;;3.72;;
64297;SDS011;50639;53.270;7.956;2023-01-01T11:37:43;11.02;;;3.10;;
64297;SDS011;50639;53.270;7.956;2023-01-01T11:40:16;12.40;;;3.00;;
64297;SDS011;50639;53.270;7.956;2023-01-01T11:42:45;11.68;;;2.97;;
64297;SDS011;50639;53.270;7.956;2023-01-01T11:45:19;14.07;;;3.38;;
64297;SDS011;50639;53.270;7.956;2023-01-01T11:47:50;8.75;;;2.78;;
64297;SDS011;50639;53.270;7.956;2023-01-01T11:52:42;15.60;;;2.88;;
64297;SDS011;50639;53.270;7.956;2023-01-01T11:55:13;15.02;;;2.90;;
64297;SDS011;50639;53.270;7.956;2023-01-01T11:57:40;15.48;;;4.18;;
64297;SDS011;50639;53.270;7.956;2023-01-01T12:00:11;12.88;;;2.90;;
64297;SDS011;50639;53.270;7.956;2023-01-01T12:02:43;10.02;;;2.53;;
64297;SDS011;50639;53.270;7.956;2023-01-01T12:05:14;14.90;;;3.10;;
64297;SDS011;50639;53.270;7.956;2023-01-01T12:07:41;15.70;;;3.30;;
64297;SDS011;50639;53.270;7.956;2023-01-01T12:10:30;10.95;;;2.50;;
64297;SDS011;50639;53.270;7.956;2023-01-01T12:12:58;16.75;;;3.33;;
64297;SDS011;50639;53.270;7.956;2023-01-01T12:18:10;15.23;;;3.60;;
64297;SDS011;50639;53.270;7.956;2023-01-01T12:23:21;11.85;;;2.60;;
64297;SDS011;50639;53.270;7.956;2023-01-01T12:25:52;12.98;;;3.30;;
64297;SDS011;50639;53.270;7.956;2023-01-01T12:29:24;13.00;;;2.75;;
64297;SDS011;50639;53.270;7.956;2023-01-01T12:34:22;8.27;;;2.53;;
64297;SDS011;50639;53.270;7.956;2023-01-01T12:36:48;13.57;;;3.13;;
64297;SDS011;50639;53.270;7.956;2023-01-01T12:49:29;19.55;;;3.92;;
64297;SDS011;50639;53.270;7.956;2023-01-01T12:54:39;20.88;;;3.75;;
64297;SDS011;50639;53.270;7.956;2023-01-01T12:57:28;13.80;;;2.85;;
64297;SDS011;50639;53.270;7.956;2023-01-01T12:59:54;18.55;;;3.83;;
64297;SDS011;50639;53.270;7.956;2023-01-01T13:02:21;12.90;;;3.20;;
64297;SDS011;50639;53.270;7.956;2023-01-01T13:04:49;16.08;;;3.78;;
64297;SDS011;50639;53.270;7.956;2023-01-01T13:07:15;13.05;;;3.50;;
64297;SDS011;50639;53.270;7.956;2023-01-01T13:09:45;14.18;;;3.55;;
64297;SDS011;50639;53.270;7.956;2023-01-01T13:12:30;13.93;;;3.20;;
64297;SDS011;50639;53.270;7.956;2023-01-01T13:14:57;11.73;;;2.80;;
64297;SDS011;50639;53.270;7.956;2023-01-01T13:17:24;23.77;;;3.97;;
64297;SDS011;50639;53.270;7.956;2023-01-01T13:19:56;15.90;;;3.58;;
64297;SDS011;50639;53.270;7.956;2023-01-01T13:25:16;15.70;;;3.13;;
64297;SDS011;50639;53.270;7.956;2023-01-01T13:31:06;13.90;;;3.15;;
64297;SDS011;50639;53.270;7.956;2023-01-01T13:43:50;12.75;;;3.05;;
64297;SDS011;50639;53.270;7.956;2023-01-01T13:46:16;14.27;;;3.00;;
64297;SDS011;50639;53.270;7.956;2023-01-01T13:53:56;15.65;;;3.20;;
64297;SDS011;50639;53.270;7.956;2023-01-01T13:56:27;14.77;;;3.90;;
64297;SDS011;50639;53.270;7.956;2023-01-01T14:07:02;16.52;;;4.45;;
64297;SDS011;50639;53.270;7.956;2023-01-01T14:09:28;21.30;;;8.55;;
64297;SDS011;50639;53.270;7.956;2023-01-01T14:11:54;24.25;;;10.00;;
64297;SDS011;50639;53.270;7.956;2023-01-01T14:16:51;12.95;;;3.92;;
64297;SDS011;50639;53.270;7.956;2023-01-01T14:19:17;12.77;;;3.65;;
64297;SDS011;50639;53.270;7.956;2023-01-01T14:21:43;16.17;;;3.00;;
64297;SDS011;50639;53.270;7.956;2023-01-01T14:24:09;13.68;;;4.50;;
64297;SDS011;50639;53.270;7.956;2023-01-01T14:26:36;20.98;;;5.90;;
64297;SDS011;50639;53.270;7.956;2023-01-01T14:29:04;17.85;;;6.80;;
64297;SDS011;50639;53.270;7.956;2023-01-01T14:31:33;26.77;;;6.80;;
64297;SDS011;50639;53.270;7.956;2023-01-01T14:33:59;12.40;;;2.78;;
64297;SDS011;50639;53.270;7.956;2023-01-01T14:38:53;23.27;;;6.00;;
64297;SDS011;50639;53.270;7.956;2023-01-01T14:41:22;17.85;;;6.13;;
64297;SDS011;50639;53.270;7.956;2023-01-01T14:43:49;23.35;;;5.43;;
64297;SDS011;50639;53.270;7.956;2023-01-01T14:46:16;24.48;;;7.10;;
64297;SDS011;50639;53.270;7.956;2023-01-01T14:48:43;16.10;;;4.07;;
64297;SDS011;50639;53.270;7.956;2023-01-01T14:51:10;13.98;;;4.13;;
64297;SDS011;50639;53.270;7.956;2023-01-01T14:53:37;15.98;;;4.07;;
64297;SDS011;50639;53.270;7.956;2023-01-01T14:56:02;17.48;;;4.03;;
64297;SDS011;50639;53.270;7.956;2023-01-01T14:58:31;11.30;;;3.95;;
64297;SDS011;50639;53.270;7.956;2023-01-01T15:03:53;16.20;;;3.53;;
64297;SDS011;50639;53.270;7.956;2023-01-01T15:06:18;14.95;;;3.38;;
64297;SDS011;50639;53.270;7.956;2023-01-01T15:08:47;15.00;;;3.43;;
64297;SDS011;50639;53.270;7.956;2023-01-01T15:11:13;12.50;;;3.53;;
64297;SDS011;50639;53.270;7.956;2023-01-01T15:13:39;13.80;;;3.85;;
64297;SDS011;50639;53.270;7.956;2023-01-01T15:16:17;11.82;;;3.13;;
64297;SDS011;50639;53.270;7.956;2023-01-01T15:18:43;13.05;;;3.35;;
64297;SDS011;50639;53.270;7.956;2023-01-01T15:23:59;11.93;;;3.08;;
64297;SDS011;50639;53.270;7.956;2023-01-01T15:26:27;16.58;;;3.53;;
64297;SDS011;50639;53.270;7.956;2023-01-01T15:31:18;13.20;;;3.80;;
64297;SDS011;50639;53.270;7.956;2023-01-01T15:33:47;11.85;;;4.82;;
64297;SDS011;50639;53.270;7.956;2023-01-01T15:36:12;15.98;;;5.40;;
64297;SDS011;50639;53.270;7.956;2023-01-01T15:38:40;19.52;;;7.03;;
64297;SDS011;50639;53.270;7.956;2023-01-01T15:41:23;16.40;;;6.07;;
64297;SDS011;50639;53.270;7.956;2023-01-01T15:43:48;18.65;;;9.38;;
64297;SDS011;50639;53.270;7.956;2023-01-01T15:46:18;15.65;;;4.80;;
64297;SDS011;50639;53.270;7.956;2023-01-01T15:48:48;17.65;;;5.53;;
64297;SDS011;50639;53.270;7.956;2023-01-01T15:51:17;21.30;;;9.30;;
64297;SDS011;50639;53.270;7.956;2023-01-01T15:53:50;17.75;;;6.47;;
64297;SDS011;50639;53.270;7.956;2023-01-01T15:56:17;17.65;;;5.93;;
64297;SDS011;50639;53.270;7.956;2023-01-01T15:58:56;21.20;;;6.95;;
64297;SDS011;50639;53.270;7.956;2023-01-01T16:01:25;16.38;;;6.28;;
64297;SDS011;50639;53.270;7.956;2023-01-01T16:03:53;19.53;;;5.87;;
64297;SDS011;50639;53.270;7.956;2023-01-01T16:06:20;21.38;;;6.95;;
64297;SDS011;50639;53.270;7.956;2023-01-01T16:08:45;20.33;;;7.00;;
64297;SDS011;50639;53.270;7.956;2023-01-01T16:11:11;15.25;;;6.20;;
64297;SDS011;50639;53.270;7.956;2023-01-01T16:13:36;18.50;;;7.28;;
64297;SDS011;50639;53.270;7.956;2023-01-01T16:16:02;16.48;;;6.38;;
64297;SDS011;50639;53.270;7.956;2023-01-01T16:18:29;16.27;;;6.10;;
64297;SDS011;50639;53.270;7.956;2023-01-01T16:20:55;19.02;;;6.15;;
64297;SDS011;50639;53.270;7.956;2023-01-01T16:23:20;16.80;;;6.03;;
64297;SDS011;50639;53.270;7.956;2023-01-01T16:25:45;16.23;;;7.10;;